Time;durP1;ratioP1;P1;durP2;ratioP2;P2;SDS_P1;SDS_P2;PMS_P1;PMS_P2;Temp;Humidity;BMP_temperature;BMP_pressure;BME280_temperature;BME280_humidity;BME280_pressure;Samples;Min_cycle;Max_cycle;Signal;HPM_P1;HPM_P2
2022/07/23 00:02:23;;;;;;;0.20;0.20;;;;;;;16.80;75.14;100341.38;5085033;28;20035;-68
2022/07/23 00:04:48;;;;;;;0.63;0.63;;;;;;;16.83;75.45;100351.75;5084746;28;20044;-68
2022/07/23 00:07:14;;;;;;;0.30;0.30;;;;;;;16.83;75.55;100346.50;5084872;28;20020;-68
2022/07/23 00:09:39;;;;;;;0.20;0.20;;;;;;;16.87;75.18;100360.34;5085210;28;20032;-67
2022/07/23 00:12:05;;;;;;;0.30;0.30;;;;;;;16.90;74.97;100357.59;5084693;28;20044;-68
2022/07/23 00:14:30;;;;;;;0.22;0.22;;;;;;;16.90;75.09;100348.91;5084423;28;20449;-69
2022/07/23 00:16:56;;;;;;;0.65;0.65;;;;;;;16.96;74.83;100359.16;5084572;28;20080;-67
2022/07/23 00:19:21;;;;;;;0.90;0.90;;;;;;;16.98;74.75;100346.88;5084825;28;20079;-68
2022/07/23 00:21:47;;;;;;;0.30;0.30;;;;;;;16.95;75.27;100354.81;5084742;28;20036;-68
2022/07/23 00:24:12;;;;;;;0.38;0.38;;;;;;;16.96;74.95;100353.94;5084822;28;20430;-68
2022/07/23 00:26:37;;;;;;;0.20;0.20;;;;;;;16.96;75.25;100351.31;5084628;28;20028;-68
2022/07/23 00:29:03;;;;;;;0.20;0.20;;;;;;;16.93;75.38;100341.75;5084387;28;20029;-68
2022/07/23 00:31:28;;;;;;;0.20;0.20;;;;;;;16.87;75.62;100344.59;5085355;28;20092;-68
2022/07/23 00:33:56;;;;;;;0.85;0.85;;;;;;;16.84;75.54;100342.09;5088349;28;20024;-68
2022/07/23 00:36:23;;;;;;;0.30;0.30;;;;;;;16.77;75.94;100336.25;5088523;28;20182;-68
2022/07/23 00:38:49;;;;;;;0.30;0.30;;;;;;;16.73;76.16;100339.88;5088401;28;20047;-68
2022/07/23 00:41:14;;;;;;;0.20;0.20;;;;;;;16.71;76.43;100336.44;5088653;28;20047;-68
2022/07/23 00:43:40;;;;;;;0.30;0.30;;;;;;;16.72;76.24;100332.91;5088611;28;20078;-68
2022/07/23 00:46:05;;;;;;;0.30;0.30;;;;;;;16.68;76.32;100337.41;5088471;28;20084;-68
2022/07/23 00:48:31;;;;;;;0.20;0.20;;;;;;;16.63;76.34;100322.75;5088241;28;20032;-68
2022/07/23 00:50:56;;;;;;;0.20;0.20;;;;;;;16.65;76.39;100334.03;5088132;28;20064;-68
2022/07/23 00:53:22;;;;;;;0.20;0.20;;;;;;;16.59;76.30;100329.88;5087976;28;20040;-68
2022/07/23 00:55:48;;;;;;;0.20;0.20;;;;;;;16.57;76.51;100327.31;5087735;28;20051;-68
2022/07/23 00:58:15;;;;;;;0.30;0.30;;;;;;;16.54;76.49;100319.53;5088429;28;20024;-68
2022/07/23 01:00:41;;;;;;;0.20;0.20;;;;;;;16.46;76.58;100317.19;5088035;28;20025;-68
2022/07/23 01:03:07;;;;;;;0.28;0.28;;;;;;;16.40;76.66;100325.28;5087920;28;20032;-68
2022/07/23 01:05:32;;;;;;;0.20;0.20;;;;;;;16.33;76.80;100322.00;5088237;28;20024;-68
2022/07/23 01:07:58;;;;;;;0.40;0.40;;;;;;;16.29;77.11;100341.34;5087844;28;20029;-68
2022/07/23 01:10:33;;;;;;;0.20;0.20;;;;;;;16.26;77.02;100336.22;5086886;28;20460;-68
2022/07/23 01:13:05;;;;;;;0.20;0.20;;;;;;;16.25;76.84;100344.97;5088044;28;20024;-68
2022/07/23 01:15:32;;;;;;;0.20;0.20;;;;;;;16.23;77.25;100336.28;5087684;28;20066;-68
2022/07/23 01:17:58;;;;;;;0.20;0.20;;;;;;;16.19;77.18;100329.47;5087355;28;20086;-68
2022/07/23 01:20:24;;;;;;;0.20;0.20;;;;;;;16.16;77.19;100334.81;5087363;28;20024;-68
2022/07/23 01:22:50;;;;;;;0.30;0.30;;;;;;;16.14;77.50;100342.72;5087856;28;20029;-68
2022/07/23 01:25:15;;;;;;;0.30;0.30;;;;;;;16.15;77.48;100341.78;5087621;28;20112;-68
2022/07/23 01:27:41;;;;;;;0.20;0.20;;;;;;;16.17;77.55;100340.00;5087700;28;20032;-68
2022/07/23 01:30:07;;;;;;;0.20;0.20;;;;;;;16.14;77.58;100342.72;5087570;28;20021;-68
2022/07/23 01:32:32;;;;;;;0.20;0.20;;;;;;;16.12;77.45;100341.91;5087641;28;20368;-68
2022/07/23 01:34:57;;;;;;;0.20;0.20;;;;;;;16.13;77.43;100338.38;5087208;28;20031;-68
2022/07/23 01:37:23;;;;;;;0.20;0.20;;;;;;;16.07;77.31;100334.19;5087413;28;20031;-68
2022/07/23 01:39:48;;;;;;;0.20;0.20;;;;;;;16.09;77.37;100344.63;5087669;28;20487;-68
2022/07/23 01:42:13;;;;;;;0.20;0.20;;;;;;;16.06;77.55;100350.81;5087198;28;20020;-68
2022/07/23 01:44:39;;;;;;;0.28;0.28;;;;;;;16.07;77.33;100347.28;5086928;28;20116;-68
2022/07/23 01:47:04;;;;;;;0.20;0.20;;;;;;;16.12;77.34;100359.38;5087402;28;20043;-68
2022/07/23 01:49:30;;;;;;;0.20;0.20;;;;;;;16.07;77.31;100357.75;5087181;28;20031;-68
2022/07/23 01:52:01;;;;;;;0.30;0.30;;;;;;;15.98;76.98;100343.22;5086860;28;20557;-68
2022/07/23 01:54:31;;;;;;;0.30;0.30;;;;;;;15.97;76.92;100346.72;5086887;28;20082;-68
2022/07/23 01:56:57;;;;;;;0.20;0.20;;;;;;;15.94;76.95;100343.34;5087286;28;20024;-68
2022/07/23 01:59:23;;;;;;;0.20;0.20;;;;;;;15.89;77.35;100340.00;5086949;28;20051;-68
2022/07/23 02:01:50;;;;;;;0.25;0.25;;;;;;;15.87;77.31;100345.28;5086776;28;20472;-68
2022/07/23 02:04:20;;;;;;;0.20;0.20;;;;;;;15.85;77.33;100353.19;5087227;28;20028;-67
2022/07/23 02:06:45;;;;;;;0.25;0.25;;;;;;;15.86;77.26;100348.81;5086700;28;20084;-68
2022/07/23 02:09:10;;;;;;;0.20;0.20;;;;;;;15.85;77.34;100349.69;5086838;28;20058;-68
2022/07/23 02:11:36;;;;;;;0.20;0.20;;;;;;;15.81;77.14;100345.47;5086715;28;20074;-68
2022/07/23 02:14:02;;;;;;;0.20;0.20;;;;;;;15.84;77.09;100335.78;5086666;28;20029;-68
2022/07/23 02:16:27;;;;;;;0.30;0.30;;;;;;;15.81;77.02;100333.25;5086628;28;20039;-67
2022/07/23 02:18:52;;;;;;;0.30;0.30;;;;;;;15.81;77.31;100338.50;5085245;28;20076;-68
2022/07/23 02:21:18;;;;;;;0.20;0.20;;;;;;;15.81;76.99;100348.97;5086799;28;20036;-67
2022/07/23 02:23:43;;;;;;;0.20;0.20;;;;;;;15.78;77.18;100343.81;5086406;28;20028;-67
2022/07/23 02:26:09;;;;;;;0.20;0.20;;;;;;;15.79;77.11;100345.53;5086461;28;20066;-67
2022/07/23 02:28:34;;;;;;;0.20;0.20;;;;;;;15.84;76.92;100351.47;5085058;28;20067;-68
2022/07/23 02:30:59;;;;;;;0.20;0.20;;;;;;;15.82;77.23;100348.03;5086583;28;20021;-67
2022/07/23 02:33:25;;;;;;;0.35;0.35;;;;;;;15.77;76.92;100349.09;5086435;28;20054;-67
2022/07/23 02:35:50;;;;;;;0.30;0.30;;;;;;;15.72;77.05;100343.97;5086407;28;20100;-67
2022/07/23 02:38:16;;;;;;;0.20;0.20;;;;;;;15.74;76.88;100352.66;5086154;28;20031;-68
2022/07/23 02:40:41;;;;;;;0.30;0.30;;;;;;;15.69;77.09;100357.16;5086211;28;20020;-67
2022/07/23 02:43:07;;;;;;;0.20;0.20;;;;;;;15.65;77.10;100356.44;5086058;28;20024;-67
2022/07/23 02:45:32;;;;;;;0.20;0.20;;;;;;;15.64;77.10;100354.69;5086064;28;20091;-67
2022/07/23 02:47:57;;;;;;;0.20;0.20;;;;;;;15.68;77.04;100347.63;5085913;28;20036;-67
2022/07/23 02:50:23;;;;;;;0.20;0.20;;;;;;;15.68;76.71;100350.22;5085944;28;20448;-67
2022/07/23 02:52:48;;;;;;;0.20;0.20;;;;;;;15.64;76.84;100351.25;5085991;28;20470;-67
2022/07/23 02:55:14;;;;;;;0.68;0.68;;;;;;;15.61;76.86;100355.66;5084633;28;20045;-67
2022/07/23 02:57:39;;;;;;;0.22;0.22;;;;;;;15.64;77.02;100348.63;5085678;28;20437;-67
2022/07/23 03:00:06;;;;;;;0.30;0.30;;;;;;;15.71;77.02;100344.91;5085713;28;20032;-68
2022/07/23 03:02:31;;;;;;;0.30;0.30;;;;;;;15.69;76.93;100352.81;5085745;28;20031;-67
2022/07/23 03:04:57;;;;;;;0.30;0.30;;;;;;;15.70;76.86;100353.66;5085745;28;20065;-68
2022/07/23 03:07:22;;;;;;;0.30;0.30;;;;;;;15.77;77.00;100356.97;5085611;28;20088;-68
2022/07/23 03:09:48;;;;;;;0.30;0.30;;;;;;;15.81;77.52;100359.44;5085638;28;20024;-68
2022/07/23 03:12:13;;;;;;;0.20;0.20;;;;;;;15.93;76.88;100368.66;5085755;28;20021;-69
2022/07/23 03:14:39;;;;;;;0.30;0.30;;;;;;;15.98;76.72;100358.94;5085474;28;20182;-67
2022/07/23 03:17:04;;;;;;;0.20;0.20;;;;;;;15.94;76.49;100362.50;5084184;28;20024;-66
2022/07/23 03:19:30;;;;;;;0.25;0.25;;;;;;;15.92;76.43;100369.56;5085859;28;20035;-67
2022/07/23 03:21:55;;;;;;;0.20;0.20;;;;;;;15.82;76.51;100355.03;5085332;28;20055;-69
2022/07/23 03:24:20;;;;;;;0.57;0.57;;;;;;;15.84;76.51;100363.69;5085477;28;20017;-69
2022/07/23 03:26:46;;;;;;;0.20;0.20;;;;;;;15.79;76.53;100369.09;5085273;28;20425;-68
2022/07/23 03:29:11;;;;;;;0.30;0.30;;;;;;;15.76;76.75;100366.56;5085849;28;20031;-67
2022/07/23 03:31:36;;;;;;;0.20;0.20;;;;;;;15.77;76.30;100368.25;5085606;28;20021;-68
2022/07/23 03:34:02;;;;;;;0.20;0.20;;;;;;;15.71;76.63;100364.09;5085440;28;20542;-67
2022/07/23 03:36:27;;;;;;;0.30;0.30;;;;;;;15.68;76.85;100371.16;5085155;28;20120;-67
2022/07/23 03:38:53;;;;;;;0.20;0.20;;;;;;;15.75;76.80;100367.44;5085258;28;20335;-67
2022/07/23 03:41:19;;;;;;;0.30;0.30;;;;;;;15.78;76.75;100367.38;5085319;28;20195;-68
2022/07/23 03:43:45;;;;;;;0.30;0.30;;;;;;;15.80;76.36;100364.72;5085285;28;20103;-68
2022/07/23 03:46:11;;;;;;;0.30;0.30;;;;;;;15.75;76.92;100359.59;5085377;28;20105;-67
2022/07/23 03:48:36;;;;;;;0.20;0.20;;;;;;;15.75;76.84;100364.81;5085424;28;20021;-67
2022/07/23 03:51:02;;;;;;;0.22;0.22;;;;;;;15.67;76.76;100341.50;5084916;28;20533;-68
2022/07/23 03:53:28;;;;;;;0.30;0.30;;;;;;;15.69;76.79;100360.66;5084949;28;20083;-67
2022/07/23 03:55:53;;;;;;;0.30;0.30;;;;;;;15.74;76.89;100355.28;5084921;28;20379;-68
2022/07/23 03:58:18;;;;;;;0.20;0.20;;;;;;;15.77;76.67;100352.56;5084982;28;20032;-68
2022/07/23 04:00:44;;;;;;;0.22;0.22;;;;;;;15.80;76.71;100357.69;5085015;28;20101;-68
2022/07/23 04:03:10;;;;;;;0.25;0.25;;;;;;;15.88;76.87;100351.38;5084759;28;20388;-68
2022/07/23 04:05:36;;;;;;;0.20;0.20;;;;;;;15.92;76.37;100347.75;5084559;28;20028;-69
2022/07/23 04:08:01;;;;;;;0.30;0.30;;;;;;;15.94;76.49;100343.34;5084859;28;20043;-68
2022/07/23 04:10:26;;;;;;;0.47;0.47;;;;;;;15.98;76.38;100355.44;5085028;28;20028;-68
2022/07/23 04:12:52;;;;;;;0.30;0.30;;;;;;;16.04;76.56;100346.53;5084951;28;20487;-68
2022/07/23 04:15:17;;;;;;;0.20;0.20;;;;;;;16.06;76.56;100349.94;5084711;28;20028;-68
2022/07/23 04:17:43;;;;;;;0.20;0.20;;;;;;;16.05;76.21;100359.59;5085065;28;20046;-68
2022/07/23 04:20:10;;;;;;;0.20;0.20;;;;;;;16.07;76.43;100349.91;5085036;28;20025;-68
2022/07/23 04:22:36;;;;;;;0.20;0.20;;;;;;;16.12;76.34;100347.13;5083441;28;20029;-68
2022/07/23 04:25:01;;;;;;;0.20;0.20;;;;;;;16.06;76.07;100342.97;5084930;28;20048;-68
2022/07/23 04:27:27;;;;;;;1.95;1.85;;;;;;;16.02;76.31;100346.59;5084837;28;20379;-68
2022/07/23 04:29:52;;;;;;;0.30;0.30;;;;;;;15.98;76.42;100337.97;5084822;28;20033;-68
2022/07/23 04:32:17;;;;;;;0.30;0.30;;;;;;;16.05;76.29;100343.00;5084791;28;20463;-68
2022/07/23 04:34:43;;;;;;;0.20;0.20;;;;;;;16.12;76.53;100348.91;5084907;28;20024;-68
2022/07/23 04:37:08;;;;;;;0.20;0.20;;;;;;;16.19;76.58;100345.16;5084999;28;20033;-68
2022/07/23 04:39:33;;;;;;;0.20;0.20;;;;;;;16.32;76.62;100345.63;5084656;28;20032;-67
2022/07/23 04:41:59;;;;;;;0.30;0.30;;;;;;;16.38;76.16;100345.41;5084818;28;20024;-68
2022/07/23 04:44:24;;;;;;;0.30;0.30;;;;;;;16.40;76.34;100330.50;5084514;28;20017;-68
2022/07/23 04:46:49;;;;;;;0.47;0.47;;;;;;;16.48;75.98;100338.09;5083241;28;20027;-68
2022/07/23 04:49:15;;;;;;;0.20;0.20;;;;;;;16.49;75.53;100334.56;5084471;28;20082;-68
2022/07/23 04:51:40;;;;;;;0.30;0.30;;;;;;;16.48;75.69;100325.84;5084373;28;20465;-68
2022/07/23 04:54:05;;;;;;;0.20;0.20;;;;;;;16.55;75.74;100329.09;5084106;28;20039;-68
2022/07/23 04:56:31;;;;;;;0.30;0.30;;;;;;;16.58;75.18;100322.94;5084492;28;20078;-68
2022/07/23 04:58:56;;;;;;;0.30;0.30;;;;;;;16.57;74.69;100318.56;5084434;28;20040;-68
2022/07/23 05:01:21;;;;;;;0.20;0.20;;;;;;;16.43;74.85;100317.31;5084224;28;20487;-68
2022/07/23 05:03:48;;;;;;;0.22;0.22;;;;;;;16.43;74.50;100313.81;5084362;28;20024;-68
2022/07/23 05:06:13;;;;;;;0.20;0.20;;;;;;;16.27;74.79;100300.38;5084239;28;20031;-68
2022/07/23 05:08:39;;;;;;;0.30;0.30;;;;;;;16.31;74.84;100307.25;5084402;28;20365;-68
2022/07/23 05:11:04;;;;;;;0.30;0.30;;;;;;;16.26;74.68;100299.56;5084373;28;20039;-68
2022/07/23 05:13:30;;;;;;;0.20;0.20;;;;;;;16.27;74.58;100301.25;5084352;28;20091;-68
2022/07/23 05:15:56;;;;;;;0.20;0.20;;;;;;;16.30;74.51;100295.03;5084310;28;20028;-68
2022/07/23 05:18:21;;;;;;;0.20;0.20;;;;;;;16.29;74.92;100301.19;5085087;28;20058;-68
2022/07/23 05:20:47;;;;;;;0.20;0.20;;;;;;;16.25;74.65;100297.81;5087760;28;20025;-68
2022/07/23 05:23:12;;;;;;;0.30;0.30;;;;;;;16.28;74.61;100307.34;5087768;28;20029;-68
2022/07/23 05:25:37;;;;;;;0.20;0.20;;;;;;;16.34;74.61;100313.22;5087804;28;20017;-68
2022/07/23 05:28:03;;;;;;;0.20;0.20;;;;;;;16.38;74.83;100313.97;5087728;28;20027;-68
2022/07/23 05:30:29;;;;;;;0.20;0.20;;;;;;;16.42;73.98;100315.56;5087640;28;20025;-68
2022/07/23 05:32:54;;;;;;;0.20;0.20;;;;;;;16.38;74.00;100313.13;5087398;28;20035;-68
2022/07/23 05:35:19;;;;;;;0.25;0.25;;;;;;;16.38;73.69;100319.22;5087199;28;20023;-68
2022/07/23 05:37:45;;;;;;;0.30;0.30;;;;;;;16.40;73.81;100312.19;5087541;28;20024;-68
2022/07/23 05:40:11;;;;;;;0.20;0.20;;;;;;;16.45;73.70;100312.00;5087307;28;20020;-68
2022/07/23 05:42:38;;;;;;;0.30;0.30;;;;;;;16.17;73.46;100266.66;5087404;28;20020;-68
2022/07/23 05:45:04;;;;;;;0.20;0.20;;;;;;;16.38;72.79;100315.72;5087221;28;20076;-68
2022/07/23 05:47:46;;;;;;;0.85;0.70;;;;;;;16.32;72.95;100315.06;5087446;28;20027;-68
2022/07/23 05:50:12;;;;;;;;;;;;;;;16.34;72.91;100321.06;5087844;28;20056;-68
2022/07/23 05:52:39;;;;;;;0.30;0.30;;;;;;;16.15;73.24;100326.06;5086957;28;19915;-68
2022/07/23 05:55:05;;;;;;;0.20;0.20;;;;;;;16.21;73.08;100338.97;5087148;28;20041;-68
2022/07/23 05:57:30;;;;;;;0.30;0.30;;;;;;;16.21;73.38;100344.19;5087144;28;20094;-68
2022/07/23 05:59:55;;;;;;;0.20;0.20;;;;;;;16.26;73.45;100344.09;5087144;28;20489;-68
2022/07/23 06:02:21;;;;;;;0.30;0.30;;;;;;;16.29;73.44;100341.34;5087010;28;20040;-68
2022/07/23 06:04:46;;;;;;;0.20;0.20;;;;;;;16.20;73.29;100310.22;5087092;28;20017;-68
2022/07/23 06:07:11;;;;;;;0.25;0.25;;;;;;;16.37;73.41;100332.38;5086888;28;20464;-68
2022/07/23 06:09:37;;;;;;;0.20;0.20;;;;;;;16.37;72.98;100322.75;5087136;28;20047;-67
2022/07/23 06:12:02;;;;;;;0.20;0.20;;;;;;;16.33;72.90;100327.22;5087181;28;20033;-68
2022/07/23 06:14:28;;;;;;;0.30;0.30;;;;;;;16.33;73.28;100329.84;5086524;28;20039;-68
2022/07/23 06:16:53;;;;;;;0.20;0.20;;;;;;;16.30;73.12;100326.47;5086890;28;20024;-67
2022/07/23 06:19:19;;;;;;;0.20;0.20;;;;;;;16.29;72.90;100324.78;5086624;28;20020;-68
2022/07/23 06:21:44;;;;;;;0.20;0.20;;;;;;;16.29;73.19;100330.88;5086628;28;20069;-68
2022/07/23 06:24:09;;;;;;;0.30;0.30;;;;;;;16.35;73.26;100327.19;5086747;28;20032;-68
2022/07/23 06:26:35;;;;;;;0.20;0.20;;;;;;;16.42;73.33;100323.44;5086577;28;20096;-67
2022/07/23 06:29:00;;;;;;;0.20;0.20;;;;;;;16.43;72.84;100329.53;5086352;28;20085;-68
2022/07/23 06:31:25;;;;;;;0.20;0.20;;;;;;;16.37;72.92;100322.75;5086505;28;20025;-68
2022/07/23 06:33:51;;;;;;;0.20;0.20;;;;;;;16.41;72.95;100323.50;5086288;28;20028;-68
2022/07/23 06:36:16;;;;;;;0.20;0.20;;;;;;;16.42;72.77;100326.06;5086153;28;20025;-68
2022/07/23 06:38:41;;;;;;;0.20;0.20;;;;;;;16.40;73.11;100319.16;5086545;28;20024;-68
2022/07/23 06:41:07;;;;;;;0.20;0.20;;;;;;;16.44;72.53;100324.25;5086595;28;20078;-68
2022/07/23 06:43:32;;;;;;;0.20;0.20;;;;;;;16.44;72.31;100320.75;5086364;28;20552;-68
2022/07/23 06:45:58;;;;;;;0.20;0.20;;;;;;;16.51;72.59;100311.78;5086355;28;20038;-68
2022/07/23 06:48:23;;;;;;;0.50;0.50;;;;;;;16.60;72.75;100315.84;5085988;28;20016;-67
2022/07/23 06:50:48;;;;;;;0.50;0.50;;;;;;;16.65;72.04;100311.31;5086124;28;20056;-68
2022/07/23 06:53:14;;;;;;;0.30;0.30;;;;;;;16.63;71.48;100314.91;5085871;28;20064;-68
2022/07/23 06:55:39;;;;;;;0.30;0.30;;;;;;;16.64;71.75;100313.97;5085908;28;20024;-68
2022/07/23 06:58:05;;;;;;;0.20;0.20;;;;;;;16.64;71.33;100317.47;5085976;28;20064;-68
2022/07/23 07:00:32;;;;;;;0.20;0.20;;;;;;;16.58;71.00;100315.91;5085729;28;20024;-68
2022/07/23 07:02:58;;;;;;;0.20;0.20;;;;;;;16.50;70.93;100315.34;5085957;28;20017;-68
2022/07/23 07:05:27;;;;;;;0.20;0.20;;;;;;;16.50;71.04;100325.81;5085787;28;20017;-67
2022/07/23 07:07:52;;;;;;;0.20;0.20;;;;;;;16.41;71.49;100323.50;5085917;28;20024;-68
2022/07/23 07:10:18;;;;;;;0.22;0.22;;;;;;;16.41;71.84;100319.13;5085924;28;20070;-67
2022/07/23 07:12:43;;;;;;;0.30;0.30;;;;;;;16.42;71.78;100323.44;5085834;28;20024;-67
2022/07/23 07:15:09;;;;;;;0.20;0.20;;;;;;;16.46;72.00;100329.44;5085549;28;20099;-67
2022/07/23 07:17:34;;;;;;;0.20;0.20;;;;;;;16.50;71.70;100331.06;5085716;28;20016;-67
2022/07/23 07:19:59;;;;;;;0.20;0.20;;;;;;;16.53;71.42;100338.81;5084442;28;20031;-67
2022/07/23 07:22:25;;;;;;;0.20;0.20;;;;;;;16.41;71.48;100339.22;5085274;28;20032;-68
2022/07/23 07:24:50;;;;;;;0.20;0.20;;;;;;;16.29;71.84;100343.97;5084337;28;20106;-67
2022/07/23 07:27:16;;;;;;;0.20;0.20;;;;;;;16.29;71.97;100345.72;5085635;28;20019;-67
2022/07/23 07:29:41;;;;;;;0.22;0.22;;;;;;;16.23;71.93;100344.16;5085477;28;20055;-68
2022/07/23 07:32:07;;;;;;;0.20;0.20;;;;;;;16.14;72.08;100342.72;5085279;28;20038;-68
2022/07/23 07:34:32;;;;;;;0.20;0.20;;;;;;;16.10;72.35;100341.94;5085448;28;20024;-68
2022/07/23 07:36:57;;;;;;;0.22;0.22;;;;;;;16.04;72.63;100330.84;5085194;28;20059;-68
2022/07/23 07:39:23;;;;;;;0.30;0.30;;;;;;;16.13;72.63;100340.13;5085230;28;20028;-68
2022/07/23 07:41:49;;;;;;;0.20;0.20;;;;;;;16.15;72.76;100340.97;5084929;28;20132;-68
2022/07/23 07:44:14;;;;;;;0.22;0.22;;;;;;;16.22;72.68;100339.84;5085127;28;20451;-68
2022/07/23 07:46:39;;;;;;;0.20;0.20;;;;;;;16.30;73.03;100343.06;5085190;28;20024;-68
2022/07/23 07:49:05;;;;;;;0.20;0.20;;;;;;;16.41;72.70;100342.69;5084142;28;20058;-67
2022/07/23 07:51:30;;;;;;;0.20;0.20;;;;;;;16.41;72.56;100347.06;5085164;28;20020;-68
2022/07/23 07:53:56;;;;;;;0.30;0.30;;;;;;;16.39;72.54;100341.88;5083405;28;20511;-67
2022/07/23 07:56:21;;;;;;;0.20;0.20;;;;;;;16.40;72.53;100342.75;5084952;28;20048;-68
2022/07/23 07:58:46;;;;;;;0.20;0.20;;;;;;;16.33;71.93;100358.69;5084869;28;20020;-67
2022/07/23 08:01:12;;;;;;;0.20;0.20;;;;;;;16.27;72.27;100360.63;5085293;28;20028;-68
2022/07/23 08:03:37;;;;;;;0.20;0.20;;;;;;;16.26;72.30;100361.56;5085260;28;20032;-68
2022/07/23 08:06:04;;;;;;;0.20;0.20;;;;;;;16.23;72.40;100368.59;5084845;28;20521;-67
2022/07/23 08:08:29;;;;;;;0.20;0.20;;;;;;;16.27;72.51;100373.72;5085000;28;20047;-68
2022/07/23 08:10:54;;;;;;;0.20;0.20;;;;;;;16.26;72.23;100372.03;5085174;28;20020;-68
2022/07/23 08:13:20;;;;;;;0.20;0.20;;;;;;;16.32;72.56;100366.59;5085091;28;20096;-68
2022/07/23 08:15:45;;;;;;;0.20;0.20;;;;;;;16.38;72.16;100376.00;5084734;28;20025;-68
2022/07/23 08:18:10;;;;;;;0.20;0.20;;;;;;;16.33;72.11;100363.91;5084755;28;20028;-68
2022/07/23 08:20:36;;;;;;;0.28;0.28;;;;;;;16.42;72.27;100375.84;5085178;28;20054;-67
2022/07/23 08:23:08;;;;;;;0.20;0.20;;;;;;;16.44;72.39;100378.41;5085138;28;20028;-69
2022/07/23 08:25:37;;;;;;;0.30;0.30;;;;;;;16.48;72.61;100374.78;5084729;28;20082;-68
2022/07/23 08:28:04;;;;;;;0.25;0.25;;;;;;;16.59;72.44;100377.91;5084784;28;20013;-68
2022/07/23 08:30:31;;;;;;;0.22;0.22;;;;;;;16.69;72.27;100380.22;5084833;28;20074;-68
2022/07/23 08:33:02;;;;;;;0.20;0.20;;;;;;;16.84;72.35;100379.66;5084248;28;20029;-68
2022/07/23 08:35:35;;;;;;;0.30;0.30;;;;;;;16.99;72.06;100385.28;5084774;28;20025;-68
2022/07/23 08:38:03;;;;;;;0.20;0.20;;;;;;;16.98;71.43;100373.94;5084784;28;20084;-68
2022/07/23 08:40:31;;;;;;;0.20;0.20;;;;;;;17.14;71.02;100388.28;5084728;28;20031;-68
2022/07/23 08:42:57;;;;;;;0.20;0.20;;;;;;;17.14;71.13;100388.28;5084957;28;20464;-68
2022/07/23 08:45:24;;;;;;;0.20;0.20;;;;;;;17.15;70.66;100390.00;5084491;28;20430;-68
2022/07/23 08:47:59;;;;;;;0.20;0.20;;;;;;;17.16;70.37;100399.56;5084804;28;20028;-68
2022/07/23 08:50:25;;;;;;;0.20;0.20;;;;;;;17.18;70.38;100387.25;5084581;28;20070;-68
2022/07/23 08:52:52;;;;;;;0.20;0.20;;;;;;;17.21;70.32;100379.28;5084748;28;20063;-67
2022/07/23 08:55:18;;;;;;;0.20;0.20;;;;;;;17.21;70.13;100372.28;5088088;28;20103;-67
2022/07/23 08:57:47;;;;;;;0.20;0.20;;;;;;;17.23;70.18;100364.34;5088058;28;20055;-67
2022/07/23 09:00:13;;;;;;;0.20;0.20;;;;;;;17.30;69.71;100371.06;5088069;28;20115;-68
2022/07/23 09:02:41;;;;;;;0.20;0.20;;;;;;;17.33;69.33;100373.56;5088191;28;20025;-67
2022/07/23 09:05:06;;;;;;;0.30;0.30;;;;;;;17.31;69.66;100371.94;5088004;28;20025;-67
2022/07/23 09:07:32;;;;;;;0.20;0.20;;;;;;;17.33;69.25;100363.06;5088382;28;20028;-68
2022/07/23 09:10:11;;;;;;;0.20;0.20;;;;;;;17.46;69.26;100370.47;5086427;28;20025;-68
2022/07/23 09:12:39;;;;;;;0.20;0.20;;;;;;;17.50;69.17;100369.47;5088244;28;20029;-68
2022/07/23 09:15:08;;;;;;;0.10;0.10;;;;;;;17.59;69.38;100366.50;5088094;28;20161;-68
2022/07/23 09:17:40;;;;;;;0.20;0.20;;;;;;;17.70;69.23;100379.19;5087856;28;20029;-68
2022/07/23 09:20:14;;;;;;;0.30;0.30;;;;;;;17.70;68.33;100378.31;5087653;28;20470;-68
2022/07/23 09:22:49;;;;;;;0.20;0.20;;;;;;;17.68;68.53;100380.19;5087729;28;20059;-68
2022/07/23 09:25:19;;;;;;;0.20;0.20;;;;;;;17.61;68.74;100379.56;5088031;28;20479;-68
2022/07/23 09:27:56;;;;;;;0.20;0.20;;;;;;;17.55;68.65;100378.03;5087693;28;20036;-68
2022/07/23 09:30:28;;;;;;;0.20;0.20;;;;;;;17.60;68.23;100377.84;5087709;28;20031;-68
2022/07/23 09:33:05;;;;;;;0.20;0.20;;;;;;;17.67;68.75;100378.44;5087526;28;20051;-68
2022/07/23 09:35:55;;;;;;;0.20;0.20;;;;;;;17.75;68.12;100386.88;5087315;28;20035;-68
2022/07/23 09:38:23;;;;;;;0.20;0.20;;;;;;;17.74;68.00;100389.56;5087828;28;20028;-68
2022/07/23 09:41:07;;;;;;;0.20;0.20;;;;;;;17.73;67.92;100393.13;5087691;28;20166;-69
2022/07/23 09:43:33;;;;;;;0.20;0.20;;;;;;;17.75;67.98;100388.69;5087640;28;20020;-69
2022/07/23 09:46:17;;;;;;;0.20;0.20;;;;;;;17.80;68.15;100394.59;5087589;28;20024;-68
2022/07/23 09:48:43;;;;;;;0.25;0.25;;;;;;;17.81;67.58;100391.91;5087402;28;20024;-68
2022/07/23 09:51:08;;;;;;;0.20;0.20;;;;;;;17.82;67.42;100398.88;5087443;28;20027;-68
2022/07/23 09:53:33;;;;;;;0.20;0.20;;;;;;;17.72;67.19;100397.50;5085519;28;20048;-68
2022/07/23 09:56:01;;;;;;;4.40;2.35;;;;;;;17.58;67.62;100395.41;5087401;28;20047;-68
2022/07/23 09:58:27;;;;;;;0.20;0.20;;;;;;;17.49;67.60;100388.75;5087326;28;20016;-68
2022/07/23 10:00:53;;;;;;;0.20;0.20;;;;;;;17.48;67.75;100397.53;5087086;28;20028;-68
2022/07/23 10:03:19;;;;;;;0.30;0.30;;;;;;;17.48;67.92;100391.44;5087254;28;20025;-68
2022/07/23 10:05:45;;;;;;;0.20;0.20;;;;;;;17.54;67.44;100407.78;5086386;28;20024;-68
2022/07/23 10:08:17;;;;;;;0.20;0.20;;;;;;;17.58;67.79;100406.78;5086951;28;20055;-68
2022/07/23 10:10:42;;;;;;;0.30;0.30;;;;;;;17.62;67.64;100402.25;5086899;28;20031;-68
2022/07/23 10:15:34;;;;;;;0.20;0.20;;;;;;;17.77;67.57;100410.47;5086464;28;20036;-68
2022/07/23 10:18:00;;;;;;;0.28;0.28;;;;;;;17.82;67.33;100408.50;5086483;28;20042;-68
2022/07/23 10:20:25;;;;;;;0.20;0.20;;;;;;;17.84;66.87;100412.78;5086854;28;20032;-68
2022/07/23 10:23:04;;;;;;;0.20;0.20;;;;;;;17.91;67.27;100415.16;5086788;28;20032;-68
2022/07/23 10:25:54;;;;;;;0.20;0.20;;;;;;;18.11;67.91;100410.91;5086836;28;20025;-67
2022/07/23 10:28:37;;;;;;;0.20;0.20;;;;;;;18.26;67.55;100418.19;5085970;28;20047;-68
2022/07/23 10:31:14;;;;;;;0.20;0.20;;;;;;;18.33;67.06;100418.81;5086391;28;20079;-68
2022/07/23 10:33:42;;;;;;;0.20;0.20;;;;;;;18.34;66.60;100423.13;5086790;28;20066;-68
2022/07/23 10:36:37;;;;;;;0.20;0.20;;;;;;;18.30;66.12;100419.81;5086364;28;20097;-68
2022/07/23 10:39:08;;;;;;;0.30;0.30;;;;;;;18.24;65.90;100414.78;5086281;28;20032;-68
2022/07/23 10:41:39;;;;;;;0.30;0.30;;;;;;;18.33;66.18;100419.66;5086462;28;20131;-68
2022/07/23 10:44:13;;;;;;;0.30;0.30;;;;;;;18.52;66.27;100420.66;5086200;28;20028;-68
2022/07/23 10:49:29;;;;;;;0.20;0.20;;;;;;;18.69;65.33;100409.47;5085949;28;20032;-68
2022/07/23 10:52:13;;;;;;;0.20;0.20;;;;;;;18.68;64.63;100408.59;5085808;28;20029;-68
2022/07/23 10:54:47;;;;;;;0.20;0.20;;;;;;;18.63;64.87;100415.81;5085524;28;20033;-68
2022/07/23 10:57:13;;;;;;;0.82;0.82;;;;;;;18.58;64.40;100405.50;5085768;28;20039;-68
2022/07/23 11:00:09;;;;;;;0.20;0.20;;;;;;;18.61;64.87;100409.75;5085705;28;20029;-68
2022/07/23 11:02:36;;;;;;;0.20;0.20;;;;;;;18.67;64.16;100406.03;5080935;28;20062;-68
2022/07/23 11:05:08;;;;;;;0.20;0.20;;;;;;;18.68;64.43;100413.00;5085569;28;20456;-68
2022/07/23 11:07:35;;;;;;;0.20;0.20;;;;;;;18.71;63.97;100407.59;5085663;28;20035;-68
2022/07/23 11:10:02;;;;;;;0.20;0.20;;;;;;;18.86;64.83;100405.25;5085692;28;20059;-67
2022/07/23 11:12:27;;;;;;;0.20;0.20;;;;;;;19.07;64.95;100408.72;5085891;28;20490;-68
2022/07/23 11:15:14;;;;;;;0.20;0.20;;;;;;;19.15;63.60;100411.03;5085595;28;20515;-68
2022/07/23 11:17:42;;;;;;;0.20;0.20;;;;;;;19.17;63.57;100401.31;5085083;28;20028;-68
2022/07/23 11:20:11;;;;;;;0.20;0.20;;;;;;;19.01;63.58;100409.00;5085004;28;20027;-68
2022/07/23 11:22:47;;;;;;;0.20;0.20;;;;;;;18.96;63.44;100401.31;5085303;28;20056;-68
2022/07/23 11:25:22;;;;;;;0.20;0.20;;;;;;;19.06;63.82;100406.97;5085258;28;20016;-68
2022/07/23 11:27:49;;;;;;;0.20;0.20;;;;;;;19.10;63.78;100405.13;5085317;28;20032;-67
2022/07/23 11:30:26;;;;;;;0.20;0.20;;;;;;;19.16;63.40;100403.06;5085378;28;20050;-67